Time;durP1;ratioP1;P1;durP2;ratioP2;P2;SDS_P1;SDS_P2;PMS_P1;PMS_P2;Temp;Humidity;BMP_temperature;BMP_pressure;BME280_temperature;BME280_humidity;BME280_pressure;Samples;Min_cycle;Max_cycle;Signal;HPM_P1;HPM_P2
2022/08/19 00:35:18;;;;;;;12.73;9.13;;;15.40;99.90;;;;;;5044879;28;20099;-67
2022/08/19 00:37:44;;;;;;;11.93;8.45;;;15.40;99.90;;;;;;5027162;28;20047;-67
2022/08/19 00:40:11;;;;;;;13.98;9.10;;;15.40;99.90;;;;;;5042692;28;20120;-67
2022/08/19 00:42:37;;;;;;;10.27;7.15;;;15.50;99.90;;;;;;5060140;28;20484;-67
2022/08/19 00:45:11;;;;;;;11.10;7.00;;;15.50;99.90;;;;;;5044163;28;20087;-67
2022/08/19 00:47:37;;;;;;;8.75;5.65;;;15.40;99.90;;;;;;5041189;28;20144;-67
2022/08/19 00:50:03;;;;;;;9.20;4.95;;;15.40;99.90;;;;;;5060344;28;20484;-67
2022/08/19 00:52:34;;;;;;;3.92;3.30;;;15.40;99.90;;;;;;5045705;28;20488;-67
2022/08/19 00:55:01;;;;;;;7.45;5.05;;;15.20;99.90;;;;;;5043651;28;20040;-67
2022/08/19 00:57:32;;;;;;;7.32;5.40;;;15.30;99.90;;;;;;5043770;28;20048;-67
2022/08/19 00:59:59;;;;;;;7.10;5.05;;;15.00;99.90;;;;;;5040854;28;20068;-67
2022/08/19 01:02:26;;;;;;;7.85;5.18;;;15.00;99.90;;;;;;5044963;28;20041;-67
2022/08/19 01:04:52;;;;;;;85.03;5.95;;;15.00;99.90;;;;;;5057803;28;20068;-68
2022/08/19 01:07:18;;;;;;;8.23;4.30;;;14.80;99.90;;;;;;5043202;28;20061;-67
2022/08/19 01:09:44;;;;;;;6.32;4.13;;;14.80;99.90;;;;;;5044605;28;20037;-67
2022/08/19 01:12:09;;;;;;;7.22;5.13;;;14.80;99.90;;;;;;5041870;28;20545;-68
2022/08/19 01:18:15;;;;;;;14.63;8.18;;;14.60;99.90;;;;;;5042535;28;20079;-68
2022/08/19 01:20:42;;;;;;;7.50;4.60;;;14.90;99.90;;;;;;5043793;28;20068;-68
2022/08/19 01:23:08;;;;;;;6.10;3.17;;;14.90;99.90;;;;;;5045554;28;20037;-68
2022/08/19 01:25:49;;;;;;;4.55;2.55;;;14.70;99.90;;;;;;5048840;28;20044;-67
2022/08/19 01:28:25;;;;;;;3.55;2.70;;;14.80;99.90;;;;;;5047382;28;20033;-67
2022/08/19 01:30:51;;;;;;;3.72;2.42;;;14.80;99.90;;;;;;5039993;28;20077;-68
2022/08/19 01:33:19;;;;;;;4.43;3.30;;;14.70;99.90;;;;;;5048361;28;20033;-68
2022/08/19 01:35:45;;;;;;;43.75;4.30;;;14.60;99.90;;;;;;5047806;28;20041;-68
2022/08/19 01:38:21;;;;;;;27.73;3.70;;;14.60;99.90;;;;;;5047863;28;20072;-68
2022/08/19 01:40:47;;;;;;;10.25;2.60;;;14.60;99.90;;;;;;5044798;28;20075;-68
2022/08/19 01:43:13;;;;;;;3.95;2.60;;;14.40;99.90;;;;;;5046699;28;20435;-68
2022/08/19 01:45:40;;;;;;;1.38;1.27;;;14.40;99.90;;;;;;5045755;28;20079;-68
2022/08/19 01:48:06;;;;;;;2.60;1.75;;;14.30;99.90;;;;;;5047860;28;20037;-68
2022/08/19 01:50:34;;;;;;;2.40;1.98;;;14.20;99.90;;;;;;5044377;28;20084;-67
2022/08/19 01:53:01;;;;;;;3.22;1.88;;;14.30;99.90;;;;;;5045051;28;20511;-68
2022/08/19 01:55:27;;;;;;;3.03;2.30;;;14.30;99.90;;;;;;5049431;28;20044;-68
2022/08/19 01:57:56;;;;;;;2.42;1.65;;;14.30;99.90;;;;;;5046242;28;20033;-67
2022/08/19 02:00:24;;;;;;;7.80;2.47;;;14.10;99.90;;;;;;5046941;28;20112;-68
2022/08/19 02:02:50;;;;;;;7.07;2.20;;;14.20;99.90;;;;;;5045365;28;20037;-68
2022/08/19 02:05:17;;;;;;;9.02;2.42;;;14.00;99.90;;;;;;5048945;28;20506;-68
2022/08/19 02:07:44;;;;;;;68.40;4.30;;;14.10;99.90;;;;;;5048629;28;20080;-68
2022/08/19 02:10:14;;;;;;;26.45;2.92;;;14.10;99.90;;;;;;5048473;28;20403;-68
2022/08/19 02:12:40;;;;;;;27.63;3.92;;;14.00;99.90;;;;;;5047956;28;20101;-68
2022/08/19 02:15:07;;;;;;;17.63;2.42;;;14.10;99.90;;;;;;5044479;28;20563;-68
2022/08/19 02:17:33;;;;;;;4.03;2.65;;;14.00;99.90;;;;;;5035752;28;20038;-68
2022/08/19 02:19:59;;;;;;;3.45;2.50;;;13.90;99.90;;;;;;5049174;28;20052;-67
2022/08/19 02:22:25;;;;;;;3.15;2.30;;;13.90;99.90;;;;;;5045684;28;20041;-68
2022/08/19 02:24:55;;;;;;;2.53;1.48;;;14.00;99.90;;;;;;5050810;28;20111;-68
2022/08/19 02:27:22;;;;;;;4.95;2.85;;;14.00;99.90;;;;;;5052339;28;20036;-68
2022/08/19 02:29:49;;;;;;;10.68;2.13;;;14.00;99.90;;;;;;5051952;28;20037;-68
2022/08/19 02:32:15;;;;;;;2.80;1.60;;;14.10;99.90;;;;;;5027770;28;20045;-68
2022/08/19 02:34:41;;;;;;;3.63;1.95;;;14.00;99.90;;;;;;5059534;28;20080;-68
2022/08/19 02:38:24;;;;;;;2.53;1.50;;;13.90;99.90;;;;;;5046413;28;20033;-68
2022/08/19 02:39:52;;;;;;;3.33;2.25;;;13.80;99.90;;;;;;5045300;28;20404;-67
2022/08/19 02:42:18;;;;;;;2.15;1.80;;;13.90;99.90;;;;;;5067005;28;20106;-68
2022/08/19 02:44:44;;;;;;;4.28;2.70;;;13.90;99.90;;;;;;5069020;28;20041;-67
2022/08/19 02:47:10;;;;;;;4.45;2.88;;;13.80;99.90;;;;;;5047431;28;20048;-67
2022/08/19 02:49:36;;;;;;;4.53;2.80;;;13.90;99.90;;;;;;5048381;28;20037;-67
2022/08/19 02:52:02;;;;;;;3.35;2.00;;;14.00;99.90;;;;;;5045890;28;20032;-68
2022/08/19 02:54:28;;;;;;;2.22;1.52;;;13.80;99.90;;;;;;5052579;28;20086;-68
2022/08/19 02:56:54;;;;;;;1.92;1.73;;;13.80;99.90;;;;;;5046849;28;20468;-68
2022/08/19 02:59:20;;;;;;;2.08;1.80;;;13.90;99.90;;;;;;5049675;28;20408;-68
2022/08/19 03:01:46;;;;;;;2.78;1.77;;;13.90;99.90;;;;;;5050429;28;20195;-68
2022/08/19 03:04:14;;;;;;;2.42;1.60;;;13.90;99.90;;;;;;5051259;28;20131;-68
2022/08/19 03:06:42;;;;;;;2.30;1.38;;;13.70;99.90;;;;;;5051895;28;20041;-67
2022/08/19 03:09:08;;;;;;;6.30;1.40;;;13.70;99.90;;;;;;5050116;28;20028;-67
2022/08/19 03:11:34;;;;;;;206.02;6.63;;;13.60;99.90;;;;;;5047216;28;20041;-67
2022/08/19 03:14:02;;;;;;;9.45;1.77;;;13.50;99.90;;;;;;5050993;28;20041;-67
2022/08/19 03:16:30;;;;;;;2.33;1.55;;;13.30;99.90;;;;;;5049388;28;20487;-67
2022/08/19 03:18:59;;;;;;;1.42;1.23;;;13.40;99.90;;;;;;5051128;28;20094;-67
2022/08/19 03:21:26;;;;;;;3.17;1.25;;;13.30;99.90;;;;;;5049559;28;20201;-67
2022/08/19 03:23:59;;;;;;;7.38;1.63;;;13.30;99.90;;;;;;5044274;28;20041;-67
2022/08/19 03:26:25;;;;;;;47.25;2.33;;;13.20;99.90;;;;;;5048688;28;20132;-67
2022/08/19 03:28:51;;;;;;;54.85;3.13;;;13.10;99.90;;;;;;5050045;28;20140;-67
2022/08/19 03:31:19;;;;;;;18.23;2.30;;;13.10;99.90;;;;;;5048483;28;20076;-67
2022/08/19 03:33:45;;;;;;;5.97;2.30;;;13.00;99.90;;;;;;5052685;28;20045;-67
2022/08/19 03:36:14;;;;;;;4.43;2.15;;;13.10;99.90;;;;;;5050755;28;20037;-67
2022/08/19 03:38:49;;;;;;;4.18;2.17;;;13.00;99.90;;;;;;5049673;28;20163;-67
2022/08/19 03:41:19;;;;;;;4.93;2.70;;;13.00;99.90;;;;;;5050015;28;20033;-66
2022/08/19 03:43:49;;;;;;;5.35;2.50;;;13.10;99.90;;;;;;5051961;28;20399;-66
2022/08/19 03:46:25;;;;;;;5.80;2.75;;;13.10;99.90;;;;;;5047793;28;20032;-66
2022/08/19 03:48:53;;;;;;;19.63;2.80;;;13.10;99.90;;;;;;5049697;28;20061;-66
2022/08/19 03:51:22;;;;;;;13.90;1.70;;;13.00;99.90;;;;;;5050915;28;20072;-66
2022/08/19 03:53:48;;;;;;;1.30;1.20;;;13.00;99.90;;;;;;5049661;28;20077;-66
2022/08/19 03:56:15;;;;;;;1.70;1.58;;;13.00;99.90;;;;;;5051022;28;20607;-66
2022/08/19 03:58:41;;;;;;;4.00;3.00;;;13.10;99.90;;;;;;5047459;28;20041;-66
2022/08/19 04:01:09;;;;;;;5.82;2.45;;;13.10;99.90;;;;;;5045428;28;20041;-66
2022/08/19 04:03:35;;;;;;;7.55;2.70;;;13.20;99.90;;;;;;5051536;28;20041;-66
2022/08/19 04:06:23;;;;;;;4.80;2.50;;;13.10;99.90;;;;;;5051734;28;20148;-66
2022/08/19 04:08:51;;;;;;;4.00;2.20;;;13.10;99.90;;;;;;5067104;28;20079;-66
2022/08/19 04:11:21;;;;;;;3.67;2.20;;;13.10;99.90;;;;;;5050460;28;20056;-66
2022/08/19 04:13:47;;;;;;;4.03;2.30;;;13.10;99.90;;;;;;5051474;28;20049;-66
2022/08/19 04:16:13;;;;;;;4.45;2.40;;;13.20;99.90;;;;;;5049378;28;20048;-66
2022/08/19 04:18:40;;;;;;;5.85;2.45;;;13.10;99.90;;;;;;5051934;28;20239;-66
2022/08/19 04:21:07;;;;;;;10.65;2.75;;;13.00;99.90;;;;;;5049730;28;20098;-66
2022/08/19 04:23:33;;;;;;;3.45;2.08;;;13.00;99.90;;;;;;5050068;28;20052;-66
2022/08/19 04:25:59;;;;;;;4.07;2.08;;;13.10;99.90;;;;;;5051011;28;20036;-66
2022/08/19 04:28:24;;;;;;;3.05;1.70;;;13.10;99.90;;;;;;5049442;28;20037;-66
2022/08/19 04:30:52;;;;;;;3.40;2.25;;;13.10;99.90;;;;;;5060554;28;20041;-66
2022/08/19 04:33:20;;;;;;;5.22;2.50;;;13.20;99.90;;;;;;5048006;28;20098;-66
2022/08/19 04:35:48;;;;;;;3.33;2.35;;;13.20;99.90;;;;;;5047747;28;20046;-66
2022/08/19 04:38:15;;;;;;;3.22;2.35;;;13.20;99.90;;;;;;5043353;28;20381;-66
2022/08/19 04:43:27;;;;;;;6.05;2.65;;;13.10;99.90;;;;;;5064922;28;20175;-66
2022/08/19 04:45:53;;;;;;;5.05;3.22;;;13.00;99.90;;;;;;5049796;28;20128;-66
2022/08/19 04:48:25;;;;;;;7.35;3.30;;;13.10;99.90;;;;;;5042596;28;20577;-66
2022/08/19 04:50:57;;;;;;;13.75;3.60;;;13.10;99.90;;;;;;5050082;28;20077;-65
2022/08/19 04:53:31;;;;;;;9.20;3.60;;;13.00;99.90;;;;;;5047888;28;20435;-66
2022/08/19 04:55:58;;;;;;;19.00;3.40;;;13.00;99.90;;;;;;5049222;28;20049;-66
2022/08/19 04:58:26;;;;;;;5.15;3.50;;;13.10;99.90;;;;;;5048687;28;20515;-66
2022/08/19 05:00:51;;;;;;;11.52;4.40;;;13.00;99.90;;;;;;5046460;28;20041;-65
2022/08/19 05:03:18;;;;;;;9.30;4.80;;;13.10;99.90;;;;;;5046172;28;20029;-66
2022/08/19 05:05:48;;;;;;;6.50;4.22;;;13.10;99.90;;;;;;5047918;28;20049;-66
2022/08/19 05:08:20;;;;;;;5.75;4.40;;;12.90;99.90;;;;;;5049612;28;20099;-66
2022/08/19 05:10:47;;;;;;;4.97;3.92;;;12.90;99.90;;;;;;5033495;28;20048;-66
2022/08/19 05:13:13;;;;;;;6.43;4.63;;;13.00;99.90;;;;;;5046664;28;20395;-66
2022/08/19 05:15:39;;;;;;;5.80;4.30;;;13.00;99.90;;;;;;5061127;28;20044;-66
2022/08/19 05:23:33;;;;;;;12.98;3.50;;;13.10;99.90;;;;;;5042124;28;20083;-66
2022/08/19 05:25:58;;;;;;;21.20;3.45;;;13.00;99.90;;;;;;5044766;28;20455;-65
2022/08/19 05:28:24;;;;;;;105.00;6.47;;;13.10;99.90;;;;;;5044057;28;20040;-66
2022/08/19 05:30:50;;;;;;;112.47;6.95;;;12.90;99.90;;;;;;5042231;28;20090;-66
2022/08/19 05:33:17;;;;;;;63.42;6.10;;;13.10;99.90;;;;;;5034568;28;20045;-66
2022/08/19 05:35:43;;;;;;;18.02;5.55;;;13.20;99.90;;;;;;5039802;28;20040;-66
2022/08/19 05:38:10;;;;;;;12.50;5.90;;;13.10;99.90;;;;;;5042856;28;20040;-66
2022/08/19 05:40:38;;;;;;;24.25;6.03;;;13.20;99.90;;;;;;5045485;28;20072;-66
2022/08/19 05:43:05;;;;;;;17.40;5.47;;;13.30;99.90;;;;;;5041633;28;20039;-66
2022/08/19 05:45:31;;;;;;;10.27;5.47;;;13.30;99.90;;;;;;5043520;28;20052;-66
2022/08/19 05:47:58;;;;;;;7.03;5.13;;;13.50;99.90;;;;;;5043067;28;20651;-66
2022/08/19 05:50:25;;;;;;;8.32;5.93;;;13.60;99.90;;;;;;5061562;28;20037;-66
2022/08/19 05:52:51;;;;;;;11.63;6.55;;;13.80;99.90;;;;;;5042987;28;20036;-66
2022/08/19 05:55:19;;;;;;;10.98;7.82;;;13.90;99.90;;;;;;5045889;28;20056;-66
2022/08/19 05:57:46;;;;;;;10.48;7.63;;;13.90;99.90;;;;;;5045242;28;20094;-66
2022/08/19 06:00:13;;;;;;;9.18;7.30;;;14.20;99.90;;;;;;5043718;28;20048;-67
2022/08/19 06:02:39;;;;;;;16.55;9.20;;;14.10;99.90;;;;;;5043837;28;20041;-67
2022/08/19 06:05:08;;;;;;;16.55;9.32;;;14.30;99.90;;;;;;5043453;28;20045;-68
2022/08/19 06:07:38;;;;;;;13.63;9.40;;;14.50;99.90;;;;;;5034797;28;20045;-68
2022/08/19 06:10:09;;;;;;;10.50;8.18;;;14.70;99.90;;;;;;5044534;28;20438;-68
2022/08/19 06:12:35;;;;;;;14.93;10.25;;;14.80;99.90;;;;;;5039210;28;20586;-68
2022/08/19 06:15:06;;;;;;;15.60;10.75;;;14.90;99.90;;;;;;5031501;28;20029;-69
2022/08/19 06:17:34;;;;;;;13.60;9.13;;;14.90;99.90;;;;;;5040142;28;20090;-69
2022/08/19 06:20:00;;;;;;;14.07;10.40;;;15.10;99.90;;;;;;5038142;28;20048;-68
2022/08/19 06:22:26;;;;;;;16.52;11.13;;;15.30;99.90;;;;;;5042244;28;20036;-68
2022/08/19 06:24:53;;;;;;;18.75;12.35;;;15.30;99.90;;;;;;5043394;28;20036;-68
2022/08/19 06:27:19;;;;;;;17.45;12.35;;;15.40;99.90;;;;;;5043979;28;20036;-68
2022/08/19 06:29:46;;;;;;;21.70;14.18;;;15.60;99.90;;;;;;5043994;28;20388;-68
2022/08/19 06:32:15;;;;;;;21.83;13.90;;;15.90;99.90;;;;;;5040197;28;20042;-67
2022/08/19 06:34:42;;;;;;;26.02;15.23;;;15.90;99.90;;;;;;5044017;28;20107;-68
2022/08/19 06:37:08;;;;;;;24.45;14.50;;;16.10;99.90;;;;;;5041943;28;20132;-69
2022/08/19 06:39:37;;;;;;;26.48;16.67;;;16.40;99.90;;;;;;5040939;28;20116;-69
2022/08/19 06:42:06;;;;;;;28.42;17.90;;;16.30;99.90;;;;;;5042397;28;20119;-70
2022/08/19 06:44:36;;;;;;;32.72;19.63;;;16.70;99.90;;;;;;5057078;28;20101;-70
2022/08/19 06:47:07;;;;;;;36.60;19.92;;;16.90;99.90;;;;;;5043002;28;20060;-70
2022/08/19 06:49:33;;;;;;;33.72;20.27;;;17.00;99.90;;;;;;5043665;28;20075;-70
2022/08/19 06:52:00;;;;;;;32.95;19.80;;;17.20;99.90;;;;;;5041912;28;20392;-70
2022/08/19 06:54:28;;;;;;;36.72;20.40;;;17.40;99.90;;;;;;5043613;28;20041;-70
2022/08/19 06:56:53;;;;;;;32.22;20.25;;;17.60;99.90;;;;;;5042027;28;20049;-70
2022/08/19 06:59:22;;;;;;;33.92;21.15;;;17.50;99.90;;;;;;5043104;28;20672;-68
2022/08/19 07:01:51;;;;;;;39.00;21.80;;;17.80;99.90;;;;;;5042958;28;20331;-70
2022/08/19 07:04:20;;;;;;;33.42;21.48;;;18.00;99.90;;;;;;5024325;28;20053;-67
2022/08/19 07:06:47;;;;;;;36.58;21.33;;;18.20;99.90;;;;;;5039677;28;20254;-68
2022/08/19 07:09:14;;;;;;;37.53;21.55;;;18.30;99.90;;;;;;5044448;28;20041;-69
2022/08/19 07:11:45;;;;;;;34.95;22.08;;;18.40;99.90;;;;;;5047344;28;20076;-68
2022/08/19 07:14:11;;;;;;;36.78;22.85;;;18.40;99.90;;;;;;5046471;28;20048;-68
2022/08/19 07:16:36;;;;;;;37.30;22.02;;;18.60;99.90;;;;;;5051503;28;20041;-69
2022/08/19 07:19:02;;;;;;;33.38;20.63;;;18.60;99.90;;;;;;5049250;28;20431;-68
2022/08/19 07:21:28;;;;;;;36.78;21.95;;;18.70;99.90;;;;;;5045546;28;20075;-67
2022/08/19 07:23:56;;;;;;;32.15;21.73;;;18.80;99.90;;;;;;5046118;28;20145;-68
2022/08/19 07:26:28;;;;;;;34.17;21.85;;;18.90;99.90;;;;;;5029057;28;20068;-67
2022/08/19 07:28:54;;;;;;;34.08;21.75;;;18.90;99.90;;;;;;5047403;28;20368;-68
2022/08/19 07:31:23;;;;;;;32.55;22.13;;;19.20;99.90;;;;;;5051680;28;20072;-67
2022/08/19 07:33:51;;;;;;;35.75;22.33;;;19.10;99.90;;;;;;5050458;28;20125;-68
2022/08/19 07:36:20;;;;;;;36.20;22.65;;;19.20;99.90;;;;;;5045652;28;20052;-67
2022/08/19 07:38:48;;;;;;;35.75;23.25;;;19.20;99.90;;;;;;5045299;28;20120;-67
2022/08/19 07:41:20;;;;;;;32.53;22.50;;;19.40;99.90;;;;;;5031346;28;20037;-67
2022/08/19 07:43:46;;;;;;;34.43;22.87;;;19.60;99.90;;;;;;5046623;28;20041;-68
2022/08/19 07:46:13;;;;;;;31.77;22.13;;;19.60;99.90;;;;;;5051446;28;20558;-68
2022/08/19 07:48:41;;;;;;;34.30;22.13;;;19.70;99.90;;;;;;5050983;28;20083;-68
2022/08/19 07:51:10;;;;;;;34.88;22.10;;;19.90;99.90;;;;;;5047719;28;20519;-67
2022/08/19 07:53:36;;;;;;;29.77;20.98;;;19.90;99.90;;;;;;5047163;28;20047;-68
2022/08/19 07:56:04;;;;;;;31.52;21.42;;;20.00;99.90;;;;;;5046195;28;20036;-67
2022/08/19 07:58:36;;;;;;;31.55;21.35;;;20.10;99.90;;;;;;5040945;28;20045;-67
2022/08/19 08:01:04;;;;;;;32.67;21.13;;;20.30;99.90;;;;;;5042509;28;20029;-68
2022/08/19 08:09:21;;;;;;;29.35;20.77;;;20.50;99.90;;;;;;5046026;28;20048;-68
2022/08/19 08:12:15;;;;;;;30.58;21.85;;;20.60;99.90;;;;;;5045041;28;20044;-68
2022/08/19 08:14:46;;;;;;;34.60;20.58;;;20.70;99.90;;;;;;5043607;28;20491;-70
2022/08/19 08:17:12;;;;;;;27.55;20.73;;;20.70;99.90;;;;;;5050339;28;20135;-70
2022/08/19 08:19:40;;;;;;;25.73;20.15;;;20.80;99.90;;;;;;5049411;28;20048;-68
2022/08/19 08:22:08;;;;;;;27.98;20.73;;;20.90;99.90;;;;;;5048439;28;20029;-68
2022/08/19 08:24:35;;;;;;;28.58;21.75;;;20.90;99.90;;;;;;5049969;28;20084;-68
2022/08/19 08:27:03;;;;;;;26.77;20.40;;;21.00;99.90;;;;;;5050328;28;20037;-69
2022/08/19 08:29:30;;;;;;;27.73;21.48;;;21.10;99.90;;;;;;5050353;28;20045;-69
2022/08/19 08:31:57;;;;;;;29.90;21.38;;;21.10;99.90;;;;;;5045374;28;20052;-69
2022/08/19 08:34:23;;;;;;;28.15;21.70;;;21.30;99.90;;;;;;5062196;28;20048;-70
2022/08/19 08:36:50;;;;;;;28.95;22.10;;;21.40;99.90;;;;;;5050304;28;20052;-68
2022/08/19 08:39:18;;;;;;;28.40;22.10;;;21.40;99.90;;;;;;5049262;28;20083;-70
2022/08/19 08:41:49;;;;;;;29.88;22.55;;;21.50;99.90;;;;;;5050598;28;20047;-69
2022/08/19 08:44:22;;;;;;;31.38;22.25;;;21.60;99.90;;;;;;5047498;28;20078;-69
2022/08/19 08:46:56;;;;;;;32.72;22.85;;;21.70;99.90;;;;;;5050082;28;20407;-69
2022/08/19 08:49:50;;;;;;;30.80;22.80;;;21.70;99.90;;;;;;5049712;28;20071;-69
2022/08/19 08:52:29;;;;;;;32.00;22.63;;;21.80;99.90;;;;;;5068288;28;20055;-69
2022/08/19 08:54:58;;;;;;;28.92;22.52;;;21.90;99.90;;;;;;5069841;28;20509;-69
2022/08/19 08:57:31;;;;;;;32.03;22.83;;;22.00;99.90;;;;;;5069887;28;20259;-69
2022/08/19 09:00:00;;;;;;;26.42;21.13;;;22.20;99.90;;;;;;5036874;28;20041;-71
2022/08/19 09:02:26;;;;;;;27.05;19.92;;;22.30;99.90;;;;;;5046931;28;20548;-71
2022/08/19 09:04:54;;;;;;;25.98;20.67;;;22.40;99.90;;;;;;5047123;28;20051;-70
2022/08/19 09:08:00;;;;;;;27.50;19.63;;;22.40;99.90;;;;;;5053971;28;20395;-70
2022/08/19 09:10:29;;;;;;;22.10;17.25;;;22.40;99.90;;;;;;5047404;28;20049;-70
2022/08/19 09:13:24;;;;;;;25.88;18.70;;;22.50;99.90;;;;;;5049061;28;20061;-69
2022/08/19 09:16:23;;;;;;;23.50;17.85;;;22.50;99.90;;;;;;5048246;28;20045;-69
2022/08/19 09:18:57;;;;;;;24.58;18.27;;;22.70;99.90;;;;;;5049650;28;20053;-70
2022/08/19 09:21:25;;;;;;;24.80;18.88;;;22.80;99.90;;;;;;5044766;28;20087;-70
2022/08/19 09:23:51;;;;;;;23.17;18.55;;;22.80;99.90;;;;;;5049990;28;20491;-72
2022/08/19 09:26:20;;;;;;;23.30;15.70;;;22.80;99.90;;;;;;5048662;28;20032;-69
2022/08/19 09:28:49;;;;;;;21.92;15.82;;;22.90;99.90;;;;;;5049412;28;20102;-69
2022/08/19 09:31:23;;;;;;;20.95;16.60;;;23.00;99.90;;;;;;5048197;28;20077;-70
2022/08/19 09:33:49;;;;;;;18.83;14.90;;;23.00;99.90;;;;;;5048681;28;20041;-71
2022/08/19 09:36:18;;;;;;;21.02;15.55;;;23.00;99.90;;;;;;5044682;28;20411;-70
2022/08/19 09:38:44;;;;;;;23.67;15.93;;;23.00;99.90;;;;;;5048958;28;20044;-71
2022/08/19 09:41:16;;;;;;;21.95;15.52;;;23.00;99.90;;;;;;5048871;28;20048;-69
2022/08/19 09:43:45;;;;;;;23.48;17.52;;;22.90;99.90;;;;;;5065180;28;20043;-74
2022/08/19 09:46:11;;;;;;;24.48;18.30;;;23.00;99.90;;;;;;5048528;28;20320;-72
2022/08/19 09:48:38;;;;;;;20.63;16.67;;;23.00;99.90;;;;;;5049236;28;20411;-69
2022/08/19 09:51:09;;;;;;;19.40;13.75;;;22.90;99.90;;;;;;5044660;28;20171;-73
2022/08/19 09:53:35;;;;;;;20.08;14.15;;;22.90;99.90;;;;;;5049007;28;20449;-72
2022/08/19 09:56:02;;;;;;;15.95;13.15;;;23.00;99.90;;;;;;5032349;28;20387;-70
2022/08/19 09:58:29;;;;;;;23.92;16.58;;;23.10;99.90;;;;;;5049151;28;20036;-71
2022/08/19 10:00:56;;;;;;;20.67;15.13;;;23.30;99.90;;;;;;5065588;28;20037;-72
2022/08/19 10:03:22;;;;;;;19.65;13.88;;;23.30;99.90;;;;;;5046683;28;20049;-72
2022/08/19 10:05:48;;;;;;;20.80;14.05;;;23.40;99.90;;;;;;5048964;28;20202;-71
2022/08/19 10:08:19;;;;;;;19.20;15.05;;;23.40;99.90;;;;;;5049285;28;20040;-70
2022/08/19 10:10:46;;;;;;;18.27;13.95;;;23.40;99.90;;;;;;5048190;28;20060;-72
2022/08/19 10:13:13;;;;;;;21.98;16.35;;;23.50;99.90;;;;;;5048104;28;20407;-71
2022/08/19 10:15:40;;;;;;;23.67;18.50;;;23.50;99.90;;;;;;5055444;28;20068;-71
2022/08/19 10:18:07;;;;;;;24.75;16.95;;;23.60;99.90;;;;;;5028548;28;20069;-69
2022/08/19 10:20:35;;;;;;;16.05;12.70;;;23.70;99.90;;;;;;5035745;28;20124;-71
2022/08/19 10:23:01;;;;;;;21.10;15.50;;;23.70;99.90;;;;;;5043262;28;20029;-73
2022/08/19 10:25:27;;;;;;;23.58;17.90;;;23.90;99.90;;;;;;5046847;28;20162;-72
2022/08/19 10:27:53;;;;;;;29.35;21.85;;;24.00;99.90;;;;;;5032930;28;20037;-73
2022/08/19 10:30:19;;;;;;;30.02;24.80;;;24.00;99.90;;;;;;5033569;28;20391;-74
2022/08/19 10:32:45;;;;;;;30.73;24.35;;;23.80;99.90;;;;;;5045799;28;20127;-73
2022/08/19 10:35:12;;;;;;;30.27;24.15;;;23.80;99.90;;;;;;5045321;28;20044;-74
2022/08/19 10:37:38;;;;;;;30.38;25.00;;;23.80;99.90;;;;;;5047085;28;20532;-72
2022/08/19 10:40:06;;;;;;;27.23;23.40;;;23.90;99.90;;;;;;5048156;28;20047;-72
2022/08/19 10:42:32;;;;;;;27.63;22.58;;;23.90;99.90;;;;;;5041946;28;20120;-72
2022/08/19 10:44:58;;;;;;;31.38;24.35;;;23.90;99.90;;;;;;5047575;28;20131;-74
2022/08/19 10:47:23;;;;;;;27.55;24.02;;;23.90;99.90;;;;;;5051907;28;20041;-72
2022/08/19 10:52:34;;;;;;;25.10;22.20;;;24.10;99.90;;;;;;5050664;28;20051;-73
2022/08/19 10:57:50;;;;;;;25.60;22.73;;;24.00;99.90;;;;;;5045001;28;20198;-70
2022/08/19 11:00:16;;;;;;;27.50;22.63;;;24.10;99.90;;;;;;5052081;28;20396;-71
2022/08/19 11:02:42;;;;;;;38.30;31.10;;;24.10;99.90;;;;;;5049841;28;20048;-72
2022/08/19 11:05:10;;;;;;;41.83;31.23;;;24.20;99.90;;;;;;5049620;28;20083;-71
2022/08/19 11:07:38;;;;;;;32.92;26.65;;;24.20;99.90;;;;;;5052983;28;20052;-72
2022/08/19 11:10:04;;;;;;;33.53;26.48;;;24.20;99.90;;;;;;5068709;28;20049;-70
2022/08/19 11:12:30;;;;;;;29.17;23.30;;;24.30;99.90;;;;;;5049875;28;20048;-76
2022/08/19 11:14:55;;;;;;;28.17;22.50;;;24.30;99.90;;;;;;5051864;28;20033;-71
2022/08/19 11:17:23;;;;;;;30.33;22.45;;;24.20;99.90;;;;;;5051803;28;20079;-72
2022/08/19 11:19:49;;;;;;;29.98;23.88;;;24.30;99.90;;;;;;5051739;28;20041;-73
2022/08/19 11:22:15;;;;;;;29.33;21.35;;;24.30;99.90;;;;;;5047768;28;20045;-73
2022/08/19 11:24:41;;;;;;;29.58;23.83;;;24.40;99.90;;;;;;5050994;28;20040;-70
2022/08/19 11:27:11;;;;;;;38.50;25.40;;;24.40;99.90;;;;;;5072893;28;20563;-72
2022/08/19 11:29:38;;;;;;;33.88;25.42;;;24.40;99.90;;;;;;5049574;28;20029;-72
2022/08/19 11:32:07;;;;;;;32.65;25.25;;;24.50;99.90;;;;;;5050472;28;20394;-71
2022/08/19 11:34:35;;;;;;;29.08;22.80;;;24.50;99.90;;;;;;5051688;28;20388;-71
2022/08/19 11:37:01;;;;;;;31.67;23.67;;;24.60;99.90;;;;;;5049123;28;20458;-73
2022/08/19 11:39:30;;;;;;;29.52;21.65;;;24.60;99.90;;;;;;5051199;28;20040;-74
2022/08/19 11:41:58;;;;;;;29.77;23.15;;;24.60;99.90;;;;;;5056793;28;20037;-74
2022/08/19 11:44:23;;;;;;;29.63;22.40;;;24.70;99.90;;;;;;5048501;28;20542;-73
2022/08/19 11:46:49;;;;;;;28.13;21.27;;;24.70;99.90;;;;;;5051003;28;20045;-73
2022/08/19 11:49:18;;;;;;;28.15;21.80;;;24.70;99.90;;;;;;5050846;28;20048;-71
2022/08/19 11:51:45;;;;;;;24.85;18.15;;;24.70;99.90;;;;;;5050092;28;20045;-72
2022/08/19 11:54:13;;;;;;;17.98;14.13;;;24.70;99.90;;;;;;5049029;28;20562;-74
2022/08/19 11:56:40;;;;;;;30.67;19.75;;;24.70;99.90;;;;;;5052092;28;20139;-71
2022/08/19 11:59:07;;;;;;;24.67;19.13;;;24.70;99.90;;;;;;5062945;28;20041;-71
2022/08/19 12:01:33;;;;;;;31.35;23.20;;;24.70;99.90;;;;;;5045261;28;20087;-72
2022/08/19 12:04:00;;;;;;;25.20;20.00;;;24.70;99.90;;;;;;5050934;28;20095;-69
2022/08/19 12:06:31;;;;;;;22.67;18.50;;;24.70;99.90;;;;;;5050788;28;20049;-69
2022/08/19 12:08:59;;;;;;;26.20;18.70;;;24.70;99.90;;;;;;5049860;28;20052;-71
2022/08/19 12:11:26;;;;;;;29.98;21.95;;;24.70;99.90;;;;;;5033397;28;20394;-74
2022/08/19 12:13:52;;;;;;;28.85;22.45;;;24.70;99.90;;;;;;5051194;28;20160;-75
2022/08/19 12:16:20;;;;;;;31.23;23.73;;;24.60;99.90;;;;;;5054016;28;20120;-72
2022/08/19 12:18:46;;;;;;;26.42;20.13;;;24.50;99.90;;;;;;5050770;28;20124;-74
2022/08/19 12:21:13;;;;;;;20.90;16.25;;;24.50;99.90;;;;;;5049612;28;20064;-72
2022/08/19 12:23:41;;;;;;;20.30;15.15;;;24.60;99.90;;;;;;5049075;28;20041;-71
2022/08/19 12:26:08;;;;;;;29.05;22.00;;;24.60;99.90;;;;;;5050462;28;20102;-78
2022/08/19 12:28:34;;;;;;;29.92;21.92;;;24.60;99.90;;;;;;5049197;28;20072;-72
2022/08/19 12:31:00;;;;;;;27.63;20.85;;;24.50;99.90;;;;;;5050741;28;20072;-73
2022/08/19 12:33:27;;;;;;;24.65;18.60;;;24.50;99.90;;;;;;5050167;28;20053;-72
2022/08/19 12:35:54;;;;;;;19.88;16.02;;;24.40;99.90;;;;;;5047027;28;20041;-74
2022/08/19 12:38:20;;;;;;;18.08;13.52;;;24.50;99.90;;;;;;5049363;28;20061;-74
2022/08/19 12:40:47;;;;;;;15.48;11.30;;;24.60;99.90;;;;;;5050192;28;20040;-72
2022/08/19 12:43:15;;;;;;;19.20;14.85;;;24.70;99.90;;;;;;5049868;28;20094;-71
2022/08/19 12:45:42;;;;;;;29.40;23.08;;;24.70;99.90;;;;;;5051017;28;20533;-73
2022/08/19 12:48:08;;;;;;;25.40;20.00;;;24.80;99.90;;;;;;5049848;28;20037;-74
2022/08/19 12:50:34;;;;;;;28.52;20.60;;;24.80;99.90;;;;;;5046130;28;20107;-72
2022/08/19 12:53:00;;;;;;;23.13;16.88;;;24.90;99.90;;;;;;5045561;28;20041;-76
2022/08/19 12:55:27;;;;;;;16.77;14.73;;;24.90;99.90;;;;;;5047766;28;20575;-72
2022/08/19 12:57:53;;;;;;;28.42;18.77;;;24.90;99.90;;;;;;5046315;28;20059;-71
2022/08/19 13:00:21;;;;;;;30.23;21.25;;;24.90;99.90;;;;;;5045878;28;20036;-75
2022/08/19 13:02:50;;;;;;;32.72;21.33;;;25.10;99.90;;;;;;5041629;28;20126;-71
2022/08/19 13:05:27;;;;;;;27.17;18.42;;;25.40;99.90;;;;;;5043457;28;20045;-71
2022/08/19 13:07:56;;;;;;;24.48;18.55;;;25.70;99.90;;;;;;5045667;28;20045;-72
2022/08/19 13:10:24;;;;;;;21.55;14.85;;;25.80;99.90;;;;;;5024401;28;20047;-72
2022/08/19 13:12:51;;;;;;;20.00;14.88;;;26.00;99.90;;;;;;5044587;28;20073;-73
2022/08/19 13:15:20;;;;;;;21.38;15.38;;;26.00;99.90;;;;;;5060105;28;20045;-71
2022/08/19 13:17:48;;;;;;;28.08;18.60;;;25.90;99.90;;;;;;5042654;28;20041;-70
2022/08/19 13:20:15;;;;;;;21.48;17.95;;;26.00;99.90;;;;;;5040258;28;20698;-73
2022/08/19 13:22:40;;;;;;;21.10;16.45;;;26.10;99.90;;;;;;5044016;28;20052;-71
2022/08/19 13:25:07;;;;;;;16.73;14.57;;;26.10;99.90;;;;;;5045251;28;20171;-75
2022/08/19 13:27:33;;;;;;;21.52;16.80;;;26.10;99.90;;;;;;5048116;28;20048;-75
2022/08/19 13:35:28;;;;;;;24.27;19.55;;;25.80;99.90;;;;;;5047582;28;20557;-73
2022/08/19 13:37:53;;;;;;;25.83;19.73;;;25.60;99.90;;;;;;5041898;28;20037;-75
2022/08/19 13:40:23;;;;;;;31.13;21.10;;;25.50;99.90;;;;;;5045830;28;20563;-73